Time;durP1;ratioP1;P1;durP2;ratioP2;P2;SDS_P1;SDS_P2;PMS_P1;PMS_P2;Temp;Humidity;BMP_temperature;BMP_pressure;BME280_temperature;BME280_humidity;BME280_pressure;Samples;Min_cycle;Max_cycle;Signal;HPM_P1;HPM_P2
2021/10/03 05:17:17;;;;;;;17.10;14.98;;;10.30;99.90;;;;;;5972821;23;20213;-79
2021/10/03 05:19:42;;;;;;;15.60;13.48;;;10.50;99.90;;;;;;4951335;28;20186;-79
2021/10/03 05:22:08;;;;;;;17.83;15.27;;;10.70;99.90;;;;;;4953774;28;20171;-77
2021/10/03 05:24:34;;;;;;;16.92;15.23;;;10.40;99.90;;;;;;4953688;29;20201;-79
2021/10/03 05:27:00;;;;;;;15.57;14.07;;;10.60;99.90;;;;;;4953736;29;20203;-78
2021/10/03 05:29:25;;;;;;;15.68;14.02;;;10.40;99.90;;;;;;4936045;29;20654;-77
2021/10/03 05:31:52;;;;;;;15.82;14.25;;;10.30;99.90;;;;;;4953519;29;20249;-77
2021/10/03 05:34:19;;;;;;;15.82;12.88;;;10.40;99.90;;;;;;4952836;28;20206;-78
2021/10/03 05:36:45;;;;;;;16.65;13.75;;;10.70;99.90;;;;;;4935749;29;20351;-79
2021/10/03 05:39:11;;;;;;;14.70;13.23;;;10.70;99.90;;;;;;4953698;28;20244;-77
2021/10/03 05:41:36;;;;;;;15.75;13.73;;;10.80;99.90;;;;;;4953329;29;20699;-77
2021/10/03 05:44:04;;;;;;;15.30;13.80;;;10.60;99.90;;;;;;4953462;28;20274;-77
2021/10/03 05:46:30;;;;;;;16.65;14.88;;;10.40;99.90;;;;;;4953507;29;20678;-79
2021/10/03 05:48:56;;;;;;;16.33;14.63;;;10.60;99.90;;;;;;4953373;28;20206;-79
2021/10/03 05:51:22;;;;;;;16.85;15.02;;;10.50;99.90;;;;;;4953348;29;20179;-78
2021/10/03 05:53:47;;;;;;;16.10;14.40;;;10.50;99.90;;;;;;4936004;29;20564;-79
2021/10/03 05:56:13;;;;;;;17.65;15.82;;;10.70;99.90;;;;;;4953253;29;20211;-78
2021/10/03 05:58:39;;;;;;;16.77;14.57;;;10.00;99.90;;;;;;4936226;29;20614;-79
2021/10/03 06:01:05;;;;;;;17.85;15.95;;;10.40;99.90;;;;;;4953544;29;20666;-78
2021/10/03 06:03:30;;;;;;;16.58;14.90;;;10.60;99.90;;;;;;4936421;29;20195;-79
2021/10/03 06:05:56;;;;;;;17.60;15.75;;;10.70;99.90;;;;;;4953562;29;20227;-79
2021/10/03 06:08:22;;;;;;;17.33;15.07;;;10.80;99.90;;;;;;4955281;28;20191;-78
2021/10/03 06:10:48;;;;;;;18.67;15.90;;;10.80;99.90;;;;;;4957070;29;20656;-78
2021/10/03 06:13:14;;;;;;;16.75;14.98;;;10.70;99.90;;;;;;4957042;28;20560;-77
2021/10/03 06:15:43;;;;;;;17.48;15.55;;;10.70;99.90;;;;;;4957185;29;20285;-78
2021/10/03 06:18:13;;;;;;;16.40;14.70;;;10.80;99.90;;;;;;4956807;28;20230;-78
2021/10/03 06:20:39;;;;;;;17.15;15.35;;;10.90;99.90;;;;;;4957158;29;20186;-74
2021/10/03 06:23:06;;;;;;;18.23;14.23;;;11.00;99.90;;;;;;4956884;28;20207;-77
2021/10/03 06:25:33;;;;;;;16.33;14.40;;;11.10;99.90;;;;;;4956863;29;20167;-76
2021/10/03 06:27:59;;;;;;;15.50;13.25;;;11.30;99.90;;;;;;4938909;29;20199;-76
2021/10/03 06:30:24;;;;;;;15.05;13.50;;;11.50;99.90;;;;;;4939449;29;20266;-74
2021/10/03 06:32:50;;;;;;;13.23;11.88;;;11.70;99.90;;;;;;4944207;28;20232;-74
2021/10/03 06:35:16;;;;;;;13.80;12.30;;;12.00;99.90;;;;;;4966740;28;20242;-73
2021/10/03 06:37:42;;;;;;;12.45;11.25;;;12.20;99.90;;;;;;4966891;28;20230;-74
2021/10/03 06:40:08;;;;;;;13.98;12.48;;;12.50;99.90;;;;;;4965726;28;20412;-77
2021/10/03 06:42:34;;;;;;;75.57;68.90;;;12.80;99.90;;;;;;4965148;28;20198;-77
2021/10/03 06:45:00;;;;;;;40.53;36.97;;;13.00;99.90;;;;;;4968461;28;20645;-77
2021/10/03 06:47:26;;;;;;;20.42;18.52;;;13.20;99.90;;;;;;4949101;28;20195;-78
2021/10/03 06:49:51;;;;;;;29.35;26.40;;;13.50;99.90;;;;;;4964812;28;20540;-76
2021/10/03 06:52:17;;;;;;;18.40;16.70;;;13.80;99.90;;;;;;4967618;28;20182;-77
2021/10/03 06:54:44;;;;;;;16.05;13.25;;;14.40;99.90;;;;;;4961912;28;20183;-74
2021/10/03 06:57:10;;;;;;;14.98;13.43;;;15.40;99.90;;;;;;4941665;28;20202;-74
2021/10/03 06:59:36;;;;;;;13.70;12.35;;;16.80;99.90;;;;;;4966652;28;20179;-77
2021/10/03 07:02:07;;;;;;;13.45;10.77;;;18.30;99.90;;;;;;4964644;28;20171;-74
2021/10/03 07:04:33;;;;;;;13.05;11.73;;;19.80;94.60;;;;;;4962142;28;20198;-74
2021/10/03 07:06:59;;;;;;;13.38;12.07;;;21.10;86.80;;;;;;4964604;28;20176;-74
2021/10/03 07:09:26;;;;;;;12.95;11.70;;;22.30;79.30;;;;;;4964843;28;20216;-74
2021/10/03 07:11:52;;;;;;;11.88;10.65;;;22.90;73.40;;;;;;4975403;28;20178;-75
2021/10/03 07:14:18;;;;;;;13.90;11.30;;;23.60;69.40;;;;;;4974979;28;20214;-75
2021/10/03 07:16:43;;;;;;;12.27;11.23;;;24.10;65.80;;;;;;4975320;28;20546;-74
2021/10/03 07:19:09;;;;;;;13.30;12.00;;;24.20;64.60;;;;;;4950966;28;20532;-74
2021/10/03 07:21:35;;;;;;;14.80;13.40;;;24.40;63.60;;;;;;4952660;29;20186;-74
2021/10/03 07:24:01;;;;;;;12.45;11.25;;;24.50;62.40;;;;;;4955740;29;20221;-74
2021/10/03 07:26:26;;;;;;;15.38;12.00;;;24.80;61.10;;;;;;4956293;29;20922;-75
2021/10/03 07:28:52;;;;;;;12.95;11.77;;;24.90;60.00;;;;;;4955830;28;20653;-75
2021/10/03 07:31:19;;;;;;;13.35;11.95;;;24.50;59.90;;;;;;4954283;29;20230;-74
2021/10/03 07:33:45;;;;;;;14.15;12.77;;;24.10;60.90;;;;;;4955470;28;20198;-74
2021/10/03 07:36:11;;;;;;;13.50;12.20;;;23.40;63.10;;;;;;4955396;28;20214;-75
2021/10/03 07:38:37;;;;;;;18.30;16.48;;;23.00;65.60;;;;;;4936476;29;20200;-75
2021/10/03 07:41:02;;;;;;;13.50;12.27;;;22.50;67.00;;;;;;4937513;29;20183;-74
2021/10/03 07:43:28;;;;;;;13.32;11.50;;;22.20;68.40;;;;;;4955579;29;20214;-75
2021/10/03 07:45:54;;;;;;;15.70;13.57;;;21.70;69.30;;;;;;4940640;29;20488;-72
2021/10/03 07:48:20;;;;;;;14.93;13.43;;;21.40;70.70;;;;;;4941142;29;20199;-74
2021/10/03 07:50:46;;;;;;;14.05;12.75;;;20.70;72.50;;;;;;4953685;29;20529;-73
2021/10/03 07:53:11;;;;;;;12.82;11.68;;;20.20;75.60;;;;;;4953940;29;20206;-74
2021/10/03 07:55:37;;;;;;;14.80;13.43;;;19.80;77.40;;;;;;4954898;29;20249;-75
2021/10/03 07:58:03;;;;;;;15.30;13.90;;;19.70;79.70;;;;;;4953523;29;20227;-74
2021/10/03 08:00:33;;;;;;;17.25;15.55;;;19.80;81.20;;;;;;4954894;28;20568;-75
2021/10/03 08:03:00;;;;;;;14.55;12.85;;;;;;;;;;4954541;28;20224;-74
2021/10/03 08:05:26;;;;;;;13.18;11.77;;;19.90;81.70;;;;;;4954564;29;20198;-73
2021/10/03 08:07:52;;;;;;;15.10;13.50;;;20.10;81.40;;;;;;4953831;29;20257;-74
2021/10/03 08:10:18;;;;;;;13.43;12.20;;;20.30;87.50;;;;;;4954414;28;20250;-77
2021/10/03 08:12:46;;;;;;;13.20;12.00;;;;;;;;;;4939615;29;20420;-73
2021/10/03 08:15:13;;;;;;;13.65;12.35;;;20.40;79.70;;;;;;4942983;29;20195;-74
2021/10/03 08:17:39;;;;;;;13.98;12.75;;;20.60;78.20;;;;;;4945077;28;20318;-74
2021/10/03 08:20:05;;;;;;;13.82;12.52;;;20.60;78.70;;;;;;4962179;28;20657;-77
2021/10/03 08:22:31;;;;;;;14.23;12.95;;;20.50;78.80;;;;;;4961875;28;20253;-74
2021/10/03 08:24:57;;;;;;;14.50;13.10;;;20.60;81.00;;;;;;4962341;28;20274;-75
2021/10/03 08:27:23;;;;;;;13.85;12.65;;;20.80;87.00;;;;;;4962001;28;20175;-74
2021/10/03 08:29:48;;;;;;;14.90;12.60;;;20.60;80.30;;;;;;4962282;28;20171;-74
2021/10/03 08:32:14;;;;;;;13.65;12.35;;;21.00;90.50;;;;;;4961644;28;20736;-75
2021/10/03 08:34:40;;;;;;;13.75;12.18;;;21.00;79.60;;;;;;4957560;28;20638;-74
2021/10/03 08:37:06;;;;;;;14.60;12.63;;;21.50;78.30;;;;;;4959950;28;20207;-74
2021/10/03 08:39:31;;;;;;;13.57;12.32;;;21.60;75.50;;;;;;4944453;28;20184;-74
2021/10/03 08:41:57;;;;;;;12.70;11.55;;;21.70;75.50;;;;;;4961794;28;20164;-76
2021/10/03 08:44:26;;;;;;;14.35;12.80;;;22.10;75.40;;;;;;4944599;28;20201;-74
2021/10/03 08:46:52;;;;;;;14.30;12.43;;;22.40;73.50;;;;;;4961819;28;20176;-74
2021/10/03 08:49:18;;;;;;;13.75;12.32;;;22.30;72.30;;;;;;4944196;28;20661;-74
2021/10/03 08:51:48;;;;;;;13.15;11.85;;;22.40;71.10;;;;;;4961600;28;20214;-74
2021/10/03 08:54:16;;;;;;;13.90;12.60;;;22.20;71.00;;;;;;4944623;28;20285;-72
2021/10/03 08:56:42;;;;;;;13.00;11.90;;;21.90;72.70;;;;;;4961314;28;20211;-74
2021/10/03 08:59:09;;;;;;;14.48;12.85;;;22.00;73.30;;;;;;4961522;28;20482;-75
2021/10/03 09:01:55;;;;;;;14.55;12.73;;;22.60;69.50;;;;;;4961136;28;20691;-74
2021/10/03 09:04:39;;;;;;;13.07;11.77;;;22.50;69.90;;;;;;4961488;28;20254;-74
2021/10/03 09:07:16;;;;;;;13.35;11.93;;;22.80;69.40;;;;;;4959869;28;20883;-75
2021/10/03 09:09:58;;;;;;;13.55;12.25;;;22.80;70.10;;;;;;4962469;28;20174;-75
2021/10/03 09:12:29;;;;;;;13.98;12.63;;;23.20;72.30;;;;;;4942980;28;20656;-75
2021/10/03 09:14:56;;;;;;;13.10;11.93;;;23.20;70.30;;;;;;4961566;28;20221;-75
2021/10/03 09:17:23;;;;;;;20.88;18.55;;;23.30;68.80;;;;;;4960772;28;20700;-76
2021/10/03 09:20:08;;;;;;;15.15;13.55;;;23.30;68.80;;;;;;4961726;28;20175;-75
2021/10/03 09:22:52;;;;;;;15.40;13.82;;;23.10;68.40;;;;;;4943571;28;20268;-74
2021/10/03 09:25:39;;;;;;;14.25;12.75;;;23.10;71.00;;;;;;4959440;28;20209;-75
2021/10/03 09:28:29;;;;;;;15.38;13.85;;;23.20;72.90;;;;;;4958590;28;20194;-74
2021/10/03 09:31:17;;;;;;;15.60;14.02;;;23.20;70.20;;;;;;4960391;28;20190;-74
2021/10/03 09:33:52;;;;;;;15.70;14.07;;;23.10;70.00;;;;;;4960604;28;20276;-75
2021/10/03 09:36:18;;;;;;;15.25;13.65;;;23.10;71.30;;;;;;4961432;28;20209;-75
2021/10/03 09:38:45;;;;;;;15.65;14.15;;;23.10;70.90;;;;;;4943552;28;20199;-76
2021/10/03 09:41:11;;;;;;;16.52;14.93;;;23.20;72.20;;;;;;4943949;28;20255;-75
2021/10/03 09:43:44;;;;;;;14.50;13.05;;;23.40;71.40;;;;;;4963944;28;20198;-75
2021/10/03 09:46:37;;;;;;;15.40;13.90;;;23.50;72.30;;;;;;4947370;28;20543;-75
2021/10/03 09:49:06;;;;;;;16.30;14.80;;;23.70;70.10;;;;;;4964657;28;20435;-75
2021/10/03 09:51:34;;;;;;;16.27;14.68;;;23.90;68.20;;;;;;4964246;28;20194;-78
2021/10/03 09:54:02;;;;;;;16.67;15.25;;;23.90;69.00;;;;;;4947503;28;20881;-75
2021/10/03 09:56:30;;;;;;;16.05;14.43;;;;;;;;;;4964851;28;20261;-76
2021/10/03 09:58:57;;;;;;;15.13;13.73;;;;;;;;;;4963710;28;20202;-75
2021/10/03 10:01:23;;;;;;;16.17;14.48;;;24.30;68.70;;;;;;4966152;28;20186;-78
2021/10/03 10:03:49;;;;;;;15.95;14.52;;;24.50;68.80;;;;;;4964538;28;20277;-77
2021/10/03 10:06:17;;;;;;;16.52;14.93;;;24.60;68.20;;;;;;4942575;29;20179;-76
2021/10/03 10:08:43;;;;;;;15.60;13.95;;;24.70;68.50;;;;;;4937754;29;20218;-77
2021/10/03 10:11:18;;;;;;;15.60;14.02;;;24.90;66.10;;;;;;4946147;28;20375;-77
2021/10/03 10:13:54;;;;;;;15.93;14.38;;;25.00;65.00;;;;;;4963090;28;20194;-77
2021/10/03 10:16:32;;;;;;;15.70;14.20;;;24.80;65.30;;;;;;4964621;28;20207;-77
2021/10/03 10:19:28;;;;;;;14.90;13.60;;;24.80;66.10;;;;;;4943577;29;20254;-77
2021/10/03 10:22:12;;;;;;;15.85;14.35;;;24.90;65.70;;;;;;4943400;29;20214;-79
2021/10/03 10:24:46;;;;;;;14.57;13.27;;;25.10;66.20;;;;;;4942930;29;20661;-79
2021/10/03 10:27:20;;;;;;;16.08;14.63;;;25.20;66.60;;;;;;4945121;29;20179;-78
2021/10/03 10:29:49;;;;;;;15.38;13.98;;;25.40;64.20;;;;;;4944875;29;20170;-78
2021/10/03 10:32:15;;;;;;;16.30;14.80;;;25.60;68.40;;;;;;4943653;29;20199;-78
2021/10/03 10:35:06;;;;;;;15.50;14.10;;;26.10;74.40;;;;;;4944744;28;20179;-79
2021/10/03 10:37:54;;;;;;;15.20;13.77;;;25.70;62.60;;;;;;4944867;29;20266;-78
2021/10/03 10:40:23;;;;;;;15.25;13.82;;;26.00;91.70;;;;;;4944412;29;20211;-78
2021/10/03 10:42:55;;;;;;;15.88;14.30;;;26.10;61.70;;;;;;4943618;29;20708;-77
2021/10/03 10:45:26;;;;;;;14.63;13.13;;;26.40;65.80;;;;;;4943755;29;20188;-77
2021/10/03 12:14:14;;;;;;;12.38;11.13;;;;;;;;;;5067733;28;21016;-74
2021/10/03 12:17:06;;;;;;;12.23;11.02;;;34.20;42.30;;;;;;5069376;28;20175;-73
